Time;durP1;ratioP1;P1;durP2;ratioP2;P2;SDS_P1;SDS_P2;PMS_P1;PMS_P2;Temp;Humidity;BMP_temperature;BMP_pressure;BME280_temperature;BME280_humidity;BME280_pressure;Samples;Min_cycle;Max_cycle;Signal;HPM_P1;HPM_P2
2022/01/28 00:04:47;;;;;;;;;37.00;32.75;;;;;9.44;78.86;102737.94;5075986;27;45427;-64
2022/01/28 00:07:12;;;;;;;;;42.25;38.00;;;;;9.46;78.69;102736.13;5075616;27;45391;-64
2022/01/28 00:09:38;;;;;;;;;36.50;34.00;;;;;9.42;78.37;102723.81;5075810;27;45512;-63
2022/01/28 00:12:04;;;;;;;;;39.00;33.50;;;;;9.57;77.59;102746.56;5075937;27;45436;-64
2022/01/28 00:14:40;;;;;;;;;41.00;37.75;;;;;9.52;78.66;102750.22;5075989;27;45770;-63
2022/01/28 00:38:50;;;;;;;;;43.75;33.00;;;;;9.46;79.40;102768.00;5072776;28;45499;-62
2022/01/28 00:41:16;;;;;;;;;51.25;37.75;;;;;9.45;79.86;102774.22;5075759;28;45435;-61
2022/01/28 00:43:42;;;;;;;;;48.00;40.50;;;;;9.49;79.17;102771.50;5055327;27;45331;-61
2022/01/28 00:46:08;;;;;;;;;37.00;32.50;;;;;9.47;79.85;102771.53;5053634;28;45466;-62
2022/01/28 00:48:33;;;;;;;;;41.25;37.25;;;;;9.46;79.16;102772.44;5055577;28;45472;-62
2022/01/28 00:50:59;;;;;;;;;49.75;36.50;;;;;9.48;78.86;102781.25;5075116;27;45587;-62
2022/01/28 00:53:24;;;;;;;;;50.25;39.75;;;;;9.49;79.78;102782.13;5074947;28;46320;-62
2022/01/28 00:55:50;;;;;;;;;43.75;35.50;;;;;9.39;80.00;102781.44;5057582;28;45720;-60
2022/01/28 00:58:16;;;;;;;;;41.25;36.25;;;;;9.37;80.00;102781.44;5074827;28;45245;-61
2022/01/28 01:00:41;;;;;;;;;43.50;38.25;;;;;9.37;79.52;102784.09;5091314;27;45690;-58
2022/01/28 01:03:08;;;;;;;;;43.00;33.00;;;;;9.41;79.58;102785.81;5074826;27;46065;-55
2022/01/28 01:05:34;;;;;;;;;43.75;39.00;;;;;9.40;79.93;102789.38;5073884;28;45379;-55
2022/01/28 01:08:04;;;;;;;;;40.25;36.75;;;;;9.49;78.88;102792.75;5054691;28;45539;-57
2022/01/28 01:10:30;;;;;;;;;45.50;39.00;;;;;9.43;78.42;102778.69;5056469;28;45524;-66
2022/01/28 01:12:56;;;;;;;;;41.25;37.00;;;;;9.54;79.41;102791.81;5058167;28;45347;-63
2022/01/28 01:15:25;;;;;;;;;37.50;33.00;;;;;9.57;79.17;102794.41;5058402;28;45241;-68
2022/01/28 01:23:07;;;;;;;;;43.50;38.00;;;;;9.50;79.48;102810.44;5061012;28;46199;-69
2022/01/28 01:25:43;;;;;;;;;44.25;37.75;;;;;9.49;78.85;102806.03;5078315;28;45214;-62
2022/01/28 01:28:11;;;;;;;;;52.25;38.00;;;;;9.49;79.34;102814.00;5078077;27;45782;-63
2022/01/28 01:30:40;;;;;;;;;46.00;34.75;;;;;9.45;79.35;102808.75;5094092;27;45575;-63
2022/01/28 01:33:05;;;;;;;;;44.50;37.00;;;;;9.44;79.48;102796.38;5076494;28;45354;-64
2022/01/28 01:35:32;;;;;;;;;41.00;33.50;;;;;9.54;78.99;102817.50;5093628;27;45603;-65
2022/01/28 01:37:58;;;;;;;;;48.00;36.25;;;;;9.53;78.81;102816.59;5078436;27;45368;-64
2022/01/28 01:40:30;;;;;;;;;45.75;39.25;;;;;9.41;79.25;102808.84;5077220;28;45469;-61
2022/01/28 01:43:07;;;;;;;;;43.50;36.50;;;;;9.37;79.11;102820.38;5077930;28;45463;-61
2022/01/28 01:53:27;;;;;;;;;47.25;36.25;;;;;9.12;78.62;102846.44;5077433;28;45320;-66
2022/01/28 01:55:54;;;;;;;;;39.75;31.25;;;;;9.19;79.66;102845.44;5078066;28;45253;-68
2022/01/28 01:58:24;;;;;;;;;43.25;32.25;;;;;9.14;79.01;102836.69;5077512;28;45389;-66
2022/01/28 02:00:50;;;;;;;;;44.00;37.50;;;;;9.20;79.62;102849.84;5078414;27;45217;-66
2022/01/28 02:03:15;;;;;;;;;47.00;38.00;;;;;9.16;79.00;102837.53;5076433;28;45262;-70
2022/01/28 02:05:41;;;;;;;;;42.25;35.00;;;;;9.26;78.69;102855.09;5077880;27;45201;-62
2022/01/28 02:08:07;;;;;;;;;40.50;35.25;;;;;9.22;78.53;102853.34;5076817;27;45173;-62
2022/01/28 02:10:34;;;;;;;;;36.75;34.00;;;;;9.19;78.96;102858.72;5078217;27;45347;-61
2022/01/28 02:12:59;;;;;;;;;39.25;33.50;;;;;9.13;78.44;102864.13;5077814;27;46521;-60
2022/01/28 02:15:25;;;;;;;;;38.50;35.00;;;;;9.04;78.63;102853.63;5090105;27;45317;-65
2022/01/28 02:17:51;;;;;;;;;38.50;32.25;;;;;9.04;79.45;102872.22;5057907;28;45846;-64
2022/01/28 02:20:36;;;;;;;;;46.00;37.50;;;;;8.91;79.06;102846.72;5057946;28;45401;-64
2022/01/28 02:23:03;;;;;;;;;41.25;37.50;;;;;9.00;79.50;102863.41;5057565;28;45434;-64
2022/01/28 02:25:32;;;;;;;;;46.75;34.75;;;;;9.03;79.15;102878.41;5057038;27;45560;-65
2022/01/28 02:28:03;;;;;;;;;40.25;31.75;;;;;9.09;78.31;102867.72;5055843;28;45254;-63
2022/01/28 02:30:29;;;;;;;;;33.00;30.25;;;;;9.12;78.59;102875.66;5057397;27;45546;-64
2022/01/28 02:33:08;;;;;;;;;47.00;37.50;;;;;8.95;78.57;102845.78;5072224;28;46261;-64
2022/01/28 02:35:33;;;;;;;;;35.00;31.25;;;;;8.98;78.94;102856.34;5077110;27;45254;-62
2022/01/28 02:37:59;;;;;;;;;32.25;29.75;;;;;8.94;79.11;102870.56;5077163;27;45460;-62
2022/01/28 02:40:24;;;;;;;;;41.00;35.50;;;;;8.83;79.48;102871.56;5077901;27;45566;-63
2022/01/28 02:43:02;;;;;;;;;36.00;29.25;;;;;8.77;78.81;102866.34;5084989;27;45451;-62
2022/01/28 02:45:38;;;;;;;;;34.00;29.50;;;;;8.81;79.30;102888.41;5076959;27;45408;-62
2022/01/28 02:48:13;;;;;;;;;35.75;29.00;;;;;8.79;79.36;102884.91;5076905;27;45642;-62
2022/01/28 02:50:45;;;;;;;;;36.25;31.25;;;;;8.82;78.19;102885.75;5077259;27;45423;-63
2022/01/28 02:53:21;;;;;;;;;37.00;29.00;;;;;8.83;78.63;102876.00;5076558;27;45450;-66
2022/01/28 02:55:46;;;;;;;;;33.00;28.75;;;;;8.85;77.98;102875.13;5075349;27;45853;-65
2022/01/28 02:58:21;;;;;;;;;39.25;29.75;;;;;8.86;77.88;102882.19;5076728;27;45321;-67
2022/01/28 03:00:47;;;;;;;;;41.75;30.00;;;;;8.75;78.65;102870.81;5076901;27;45449;-63
2022/01/28 03:03:14;;;;;;;;;38.50;33.25;;;;;8.73;78.54;102874.38;5076566;27;45454;-63
2022/01/28 03:05:41;;;;;;;;;40.75;34.00;;;;;8.71;78.74;102871.72;5071735;28;45257;-59
2022/01/28 03:08:06;;;;;;;;;37.25;33.00;;;;;8.67;78.96;102871.78;5067835;28;46556;-62
2022/01/28 03:15:35;;;;;;;;;32.00;30.00;;;;;8.74;78.13;102861.09;5076864;27;45390;-67
2022/01/28 03:20:55;;;;;;;;;48.25;38.75;;;;;8.62;79.70;102855.94;5076885;27;45341;-68
2022/01/28 03:23:18;;;;;;;;;42.25;32.00;;;;;8.58;79.20;102840.94;5076177;27;45304;-68
2022/01/28 03:25:45;;;;;;;;;39.25;36.00;;;;;8.63;79.37;102851.50;5075407;28;45426;-67
2022/01/28 03:28:12;;;;;;;;;44.25;33.00;;;;;8.65;79.16;102855.91;5076133;28;45455;-64
2022/01/28 03:30:38;;;;;;;;;37.25;35.00;;;;;8.74;78.58;102857.56;5076612;27;45531;-60
2022/01/28 03:33:03;;;;;;;;;36.00;30.25;;;;;8.76;78.27;102864.59;5075554;27;45491;-63
2022/01/28 03:35:30;;;;;;;;;35.25;31.50;;;;;8.79;78.13;102869.88;5076756;27;45313;-58
2022/01/28 03:38:00;;;;;;;;;36.50;29.75;;;;;8.79;77.88;102853.94;5076693;27;45356;-59
2022/01/28 03:40:27;;;;;;;;;49.00;38.25;;;;;8.84;77.52;102852.09;5075477;27;45506;-63
2022/01/28 03:42:52;;;;;;;;;51.00;39.00;;;;;8.82;78.12;102855.69;5074507;28;46783;-62
2022/01/28 03:45:18;;;;;;;;;42.75;37.00;;;;;8.86;77.87;102860.94;5076230;27;45412;-63
2022/01/28 03:47:43;;;;;;;;;40.50;38.25;;;;;8.92;78.05;102864.41;5076297;27;45392;-60
2022/01/28 03:50:09;;;;;;;;;46.50;39.25;;;;;8.92;77.48;102867.94;5075423;27;45650;-64
2022/01/28 03:52:34;;;;;;;;;44.75;40.00;;;;;8.94;77.44;102878.53;5076202;27;46475;-61
2022/01/28 03:54:59;;;;;;;;;44.75;38.50;;;;;8.97;78.31;102881.13;5076656;27;45382;-58
2022/01/28 03:57:25;;;;;;;;;43.75;38.75;;;;;8.93;77.35;102882.09;5075125;27;45433;-63
2022/01/28 03:59:50;;;;;;;;;56.00;43.50;;;;;8.91;78.32;102889.19;5108792;27;45582;-60
2022/01/28 04:02:20;;;;;;;;;48.00;41.25;;;;;8.88;77.91;102902.50;5075870;28;46281;-60
2022/01/28 04:12:46;;;;;;;;;47.00;38.75;;;;;8.62;78.12;102898.38;5075534;28;45278;-64
2022/01/28 04:15:37;;;;;;;;;43.00;29.50;;;;;8.68;78.21;102911.56;5091564;27;45725;-66
2022/01/28 04:18:02;;;;;;;;;49.75;41.25;;;;;8.69;78.04;102905.34;5074874;28;45362;-63
2022/01/28 04:20:30;;;;;;;;;41.00;35.00;;;;;8.69;78.43;102905.34;5076562;28;45341;-65
2022/01/28 04:22:56;;;;;;;;;48.50;38.50;;;;;8.69;78.45;102880.59;5074155;28;45352;-64
2022/01/28 04:25:21;;;;;;;;;41.00;30.75;;;;;8.71;77.65;102887.63;5074087;27;45310;-64
2022/01/28 04:27:47;;;;;;;;;38.00;31.00;;;;;8.78;78.37;102899.06;5075776;27;45621;-63
2022/01/28 04:30:13;;;;;;;;;44.25;38.25;;;;;8.71;78.16;102885.00;5073076;28;45552;-61
2022/01/28 04:32:39;;;;;;;;;51.50;39.00;;;;;8.74;78.35;102907.97;5074416;27;45417;-64
2022/01/28 04:35:05;;;;;;;;;40.00;33.25;;;;;8.70;78.08;102906.22;5074291;28;45406;-60
2022/01/28 04:38:03;;;;;;;;;52.25;34.75;;;;;8.71;77.93;102908.88;5075783;28;45460;-61
2022/01/28 04:40:24;;;;;;;;;37.00;35.50;;;;;8.67;78.03;102901.84;5075601;27;45304;-63
2022/01/28 04:43:08;;;;;;;;;43.00;33.25;;;;;8.65;78.15;102903.66;5071610;27;46292;-66
2022/01/28 04:53:37;;;;;;;;;42.50;35.00;;;;;8.60;76.89;102894.00;5078882;27;45389;-70
2022/01/28 04:58:55;;;;;;;;;47.00;33.00;;;;;8.62;77.74;102913.41;5079164;27;45371;-66
2022/01/28 05:06:54;;;;;;;;;39.00;31.50;;;;;8.58;78.15;102918.72;5078621;27;45751;-60
2022/01/28 05:15:02;;;;;;;;;33.00;28.50;;;;;8.63;77.53;102934.63;5078629;28;46035;-65
2022/01/28 05:25:50;;;;;;;;;40.75;34.75;;;;;8.66;77.22;102946.97;5078469;28;45345;-65
2022/01/28 05:28:20;;;;;;;;;33.00;31.00;;;;;8.64;77.63;102935.50;5058238;28;45733;-61
2022/01/28 05:30:46;;;;;;;;;32.00;29.00;;;;;8.65;78.24;102938.13;5076551;28;45340;-62
2022/01/28 05:33:11;;;;;;;;;40.00;32.00;;;;;8.74;77.12;102951.31;5078469;27;45179;-64
2022/01/28 05:35:37;;;;;;;;;40.25;35.75;;;;;8.77;78.07;102961.00;5078085;28;45337;-63
2022/01/28 05:38:02;;;;;;;;;49.00;37.00;;;;;8.78;76.59;102960.09;5078425;27;45248;-64
2022/01/28 05:40:27;;;;;;;;;26.00;25.25;;;;;8.66;77.73;102950.50;5059436;27;45506;-59
2022/01/28 05:42:53;;;;;;;;;48.75;36.00;;;;;8.68;77.73;102956.66;5078032;27;45428;-61
2022/01/28 05:45:18;;;;;;;;;31.50;28.50;;;;;8.71;77.45;102958.38;5073374;28;45683;-61
2022/01/28 05:47:44;;;;;;;;;34.75;29.75;;;;;8.70;76.94;102965.47;5075717;28;45495;-62
2022/01/28 05:50:09;;;;;;;;;41.00;33.25;;;;;8.58;77.08;102945.25;5077631;27;45324;-60
2022/01/28 05:52:35;;;;;;;;;34.25;32.50;;;;;8.51;77.98;102955.97;5078450;27;45695;-58
2022/01/28 05:55:00;;;;;;;;;39.75;36.75;;;;;8.58;78.27;102976.22;5077289;28;45718;-58
2022/01/28 05:57:26;;;;;;;;;46.50;29.50;;;;;8.60;78.42;102985.06;5076326;28;45366;-61
2022/01/28 05:59:51;;;;;;;;;44.00;31.50;;;;;8.63;78.12;102987.66;5078294;27;45976;-59
2022/01/28 06:02:18;;;;;;;;;36.75;30.50;;;;;8.66;78.36;102986.75;5078270;28;45587;-61
2022/01/28 06:04:45;;;;;;;;;30.25;28.50;;;;;8.66;77.81;102992.94;5076433;28;45432;-59
2022/01/28 06:07:11;;;;;;;;;37.50;30.75;;;;;8.65;77.97;103001.78;5077221;27;45423;-61
2022/01/28 06:09:36;;;;;;;;;37.50;27.75;;;;;8.64;77.58;102997.38;5078147;27;45273;-60
2022/01/28 06:12:02;;;;;;;;;37.25;29.75;;;;;8.66;77.91;102989.41;5074078;27;45299;-60
2022/01/28 06:14:27;;;;;;;;;33.00;29.00;;;;;8.76;77.46;103002.56;5076283;28;45391;-60
2022/01/28 06:16:53;;;;;;;;;27.00;20.50;;;;;8.82;76.09;102997.19;5077728;27;45318;-61
2022/01/28 06:19:18;;;;;;;;;48.50;35.50;;;;;8.85;75.54;102994.53;5089229;27;45666;-56
2022/01/28 06:21:43;;;;;;;;;42.25;31.25;;;;;8.72;75.36;102970.75;5073336;28;45284;-58
2022/01/28 06:24:09;;;;;;;;;37.75;34.50;;;;;8.89;74.98;102995.38;5077505;27;45244;-56
2022/01/28 06:26:34;;;;;;;;;37.75;33.00;;;;;8.86;75.82;102993.63;5077660;27;45234;-56
2022/01/28 06:29:00;;;;;;;;;36.75;32.50;;;;;8.84;76.14;102997.16;5077105;27;45564;-57
2022/01/28 06:31:25;;;;;;;;;33.00;31.75;;;;;8.84;76.61;102992.72;5076139;28;45329;-58
2022/01/28 06:33:50;;;;;;;;;41.75;35.00;;;;;8.82;76.62;102986.56;5077138;28;46203;-55
2022/01/28 06:36:16;;;;;;;;;39.75;31.00;;;;;8.83;76.69;102993.63;5077090;28;45365;-57
2022/01/28 06:38:41;;;;;;;;;40.75;33.25;;;;;8.84;76.64;102998.03;5076300;27;45325;-56
2022/01/28 06:41:07;;;;;;;;;39.75;29.50;;;;;8.79;76.83;102985.72;5074174;27;45462;-56
2022/01/28 06:43:32;;;;;;;;;43.75;37.75;;;;;8.75;76.41;102974.28;5076074;27;48165;-58
2022/01/28 06:45:58;;;;;;;;;46.00;35.75;;;;;8.75;76.98;102984.03;5074832;28;45669;-57
2022/01/28 06:48:23;;;;;;;;;46.75;35.25;;;;;8.73;76.99;102997.31;5076837;27;45494;-58
2022/01/28 06:50:48;;;;;;;;;41.25;37.75;;;;;8.72;76.46;103000.81;5077419;27;45464;-61
2022/01/28 06:53:14;;;;;;;;;39.00;34.50;;;;;8.78;77.01;103006.09;5074968;27;45562;-56
2022/01/28 06:55:41;;;;;;;;;40.25;34.25;;;;;8.78;76.96;103003.44;5076139;28;45531;-57
2022/01/28 06:58:07;;;;;;;;;34.25;29.75;;;;;8.75;76.57;103008.78;5077086;27;45268;-56
2022/01/28 07:00:37;;;;;;;;;33.50;29.50;;;;;8.73;76.41;102997.31;5076928;28;45592;-56
2022/01/28 07:03:11;;;;;;;;;26.00;26.00;;;;;8.73;76.03;102992.00;5069314;28;45470;-54
2022/01/28 07:05:37;;;;;;;;;44.75;33.25;;;;;8.89;75.88;103018.38;5076885;27;45546;-57
2022/01/28 07:08:04;;;;;;;;;32.75;30.00;;;;;8.89;76.47;103008.63;5075198;28;45743;-53
2022/01/28 07:10:29;;;;;;;;;56.75;41.00;;;;;8.92;76.21;103007.72;5075783;28;45599;-57
2022/01/28 07:12:55;;;;;;;;;43.50;36.25;;;;;8.90;76.29;103002.44;5074930;27;45315;-57
2022/01/28 07:15:25;;;;;;;;;55.50;45.75;;;;;8.94;75.65;103008.56;5076623;28;45406;-56
2022/01/28 07:17:55;;;;;;;;;57.25;42.00;;;;;8.95;75.80;103018.28;5076200;27;45539;-56
2022/01/28 07:20:21;;;;;;;;;60.50;47.00;;;;;8.92;75.14;103023.63;5075252;28;45789;-57
2022/01/28 07:22:47;;;;;;;;;55.75;46.00;;;;;8.89;75.28;103010.41;5076608;27;46420;-57
2022/01/28 07:25:13;;;;;;;;;57.75;47.00;;;;;8.97;75.34;103027.09;5076375;27;45360;-58
2022/01/28 07:27:39;;;;;;;;;54.25;42.50;;;;;8.97;75.88;103029.75;5076225;27;45359;-58
2022/01/28 07:30:07;;;;;;;;;57.50;44.75;;;;;8.96;75.97;103031.53;5091892;27;45550;-58
2022/01/28 07:32:32;;;;;;;;;56.00;43.25;;;;;8.96;75.64;103038.63;5091749;27;47623;-56
2022/01/28 07:34:58;;;;;;;;;59.75;44.50;;;;;8.97;75.59;103035.06;5091800;27;45360;-57
2022/01/28 07:37:23;;;;;;;;;48.50;43.00;;;;;8.98;74.55;103044.78;5076409;27;45302;-57
2022/01/28 07:39:50;;;;;;;;;56.50;42.25;;;;;8.94;74.40;103037.75;5076569;27;45464;-56
2022/01/28 07:42:17;;;;;;;;;52.50;41.25;;;;;8.95;74.86;103042.16;5076087;27;45442;-57
2022/01/28 07:44:42;;;;;;;;;54.75;43.00;;;;;8.90;74.51;103039.59;5074391;28;45322;-57
2022/01/28 07:47:08;;;;;;;;;43.00;39.00;;;;;8.90;74.54;103036.03;5076509;27;45199;-55
2022/01/28 07:49:33;;;;;;;;;34.75;31.50;;;;;8.94;73.94;103043.94;5074944;28;45465;-58
2022/01/28 07:51:59;;;;;;;;;39.00;30.50;;;;;9.01;73.12;103056.28;5075674;28;46109;-57
2022/01/28 07:54:24;;;;;;;;;35.25;27.50;;;;;9.06;73.23;103064.19;5075705;28;45331;-59
2022/01/28 07:56:53;;;;;;;;;32.00;27.50;;;;;9.00;72.32;103061.59;5075756;28;45227;-54
2022/01/28 07:59:19;;;;;;;;;36.00;29.75;;;;;9.02;71.62;103071.31;5076138;28;45555;-56
2022/01/28 08:01:45;;;;;;;;;29.50;26.00;;;;;9.01;71.93;103073.97;5074849;28;45444;-56
2022/01/28 08:04:10;;;;;;;;;35.25;28.00;;;;;8.94;72.02;103067.84;5076341;27;45344;-56
2022/01/28 08:06:36;;;;;;;;;33.50;29.25;;;;;9.00;71.75;103090.81;5074598;28;45294;-58
2022/01/28 08:09:01;;;;;;;;;36.25;32.25;;;;;8.99;71.66;103078.44;5076253;28;45337;-57
2022/01/28 08:11:27;;;;;;;;;37.50;28.75;;;;;8.99;71.81;103079.31;5074320;28;46868;-60
2022/01/28 08:13:52;;;;;;;;;35.00;30.50;;;;;9.01;71.18;103089.91;5091544;27;45276;-58
2022/01/28 08:16:18;;;;;;;;;38.25;34.50;;;;;9.01;71.52;103088.13;5076021;27;45291;-61
2022/01/28 08:18:43;;;;;;;;;46.50;33.50;;;;;8.97;70.94;103080.19;5076777;27;45551;-56
2022/01/28 08:21:09;;;;;;;;;44.00;31.75;;;;;9.01;71.40;103085.47;5065853;27;46280;-56
2022/01/28 08:23:35;;;;;;;;;42.50;36.25;;;;;9.02;70.66;103094.31;5058863;28;45377;-55
2022/01/28 08:26:01;;;;;;;;;30.25;28.50;;;;;9.00;71.50;103085.50;5057237;28;45451;-57
2022/01/28 08:28:27;;;;;;;;;42.50;36.75;;;;;9.04;71.02;103092.53;5058949;28;45474;-58
2022/01/28 08:30:53;;;;;;;;;35.25;32.75;;;;;9.02;70.64;103081.91;5058915;28;45412;-57
2022/01/28 08:33:18;;;;;;;;;34.25;29.75;;;;;9.07;70.42;103092.47;5057577;28;45487;-56
2022/01/28 08:35:50;;;;;;;;;43.00;34.75;;;;;9.03;71.06;103096.94;5059241;28;45377;-57
2022/01/28 08:38:24;;;;;;;;;37.25;33.00;;;;;9.08;70.53;103115.47;5059061;28;45507;-56
2022/01/28 08:40:50;;;;;;;;;45.00;34.25;;;;;9.06;70.41;103109.31;5057222;28;47781;-56
2022/01/28 08:43:16;;;;;;;;;41.50;32.00;;;;;9.05;70.44;103127.00;5074683;28;45432;-55
2022/01/28 08:45:41;;;;;;;;;27.00;19.25;;;;;9.06;70.61;103138.50;5079388;27;45454;-54
2022/01/28 08:48:09;;;;;;;;;30.50;27.50;;;;;9.06;70.30;103135.84;5077800;27;45564;-56
2022/01/28 08:50:35;;;;;;;;;39.75;29.75;;;;;9.06;70.41;103127.88;5079071;27;45411;-61
2022/01/28 08:53:01;;;;;;;;;46.75;30.25;;;;;8.99;70.20;103120.91;5078535;27;45294;-57
2022/01/28 08:55:27;;;;;;;;;40.75;32.50;;;;;9.04;70.04;103143.84;5078897;27;45236;-57
2022/01/28 08:57:53;;;;;;;;;36.25;29.50;;;;;9.02;70.44;103136.78;5078979;27;45274;-56
2022/01/28 09:00:21;;;;;;;;;37.00;28.50;;;;;9.09;70.77;103147.31;5077187;27;46586;-55
2022/01/28 09:02:47;;;;;;;;;35.25;28.75;;;;;9.11;70.67;103152.59;5078465;27;45373;-57
2022/01/28 09:05:13;;;;;;;;;32.25;31.25;;;;;9.08;70.20;103147.34;5077441;27;45454;-60
2022/01/28 09:07:39;;;;;;;;;30.00;28.00;;;;;9.10;70.86;103150.84;5077285;28;45605;-58
2022/01/28 09:10:12;;;;;;;;;38.75;27.00;;;;;9.14;70.43;103152.59;5078461;27;45969;-55
2022/01/28 09:12:46;;;;;;;;;40.75;32.00;;;;;9.13;70.81;103164.13;5078417;27;45444;-55
2022/01/28 09:15:12;;;;;;;;;34.25;27.25;;;;;9.10;70.29;103157.03;5078664;27;45435;-58
2022/01/28 09:17:38;;;;;;;;;39.00;32.25;;;;;9.14;69.93;103157.91;5094590;27;45505;-60
2022/01/28 09:20:04;;;;;;;;;40.75;31.75;;;;;9.06;69.70;103141.16;5077385;28;46711;-57
2022/01/28 09:22:29;;;;;;;;;33.75;29.75;;;;;9.16;69.68;103153.47;5078391;27;45470;-56
2022/01/28 09:24:55;;;;;;;;;31.25;28.50;;;;;9.12;69.19;103149.09;5078365;28;45387;-57
2022/01/28 09:27:21;;;;;;;;;30.00;24.25;;;;;9.14;69.89;103150.81;5078673;27;45411;-57
2022/01/28 09:29:47;;;;;;;;;35.00;29.75;;;;;9.05;70.33;103131.44;5078643;27;46091;-58
2022/01/28 09:32:12;;;;;;;;;34.50;28.25;;;;;9.17;69.04;103155.22;5077257;27;45265;-58
2022/01/28 09:34:38;;;;;;;;;41.50;32.75;;;;;9.23;68.97;103167.53;5077886;27;45295;-57
2022/01/28 09:37:04;;;;;;;;;32.50;27.50;;;;;9.14;68.96;103147.28;5078125;28;45512;-55
2022/01/28 09:39:31;;;;;;;;;27.50;24.00;;;;;9.11;69.27;103139.34;5077781;27;45218;-57
2022/01/28 09:42:02;;;;;;;;;33.00;27.50;;;;;9.27;68.38;103166.66;5088462;27;45323;-57
2022/01/28 09:44:29;;;;;;;;;31.25;27.75;;;;;9.23;68.25;103162.25;5057958;28;45274;-58
2022/01/28 09:46:59;;;;;;;;;31.50;24.25;;;;;9.22;68.77;103149.84;5057622;28;45445;-55
2022/01/28 09:49:26;;;;;;;;;26.25;22.50;;;;;9.22;67.89;103155.16;5057325;28;46203;-58
2022/01/28 09:51:52;;;;;;;;;34.50;26.25;;;;;9.21;68.16;103159.59;5057449;28;45235;-57
2022/01/28 09:54:17;;;;;;;;;27.75;24.50;;;;;9.22;67.90;103166.66;5068284;28;45420;-57
2022/01/28 09:56:43;;;;;;;;;34.00;25.75;;;;;9.25;68.38;103161.34;5077925;27;45595;-57
2022/01/28 09:59:08;;;;;;;;;31.25;20.50;;;;;9.26;67.79;103151.59;5076183;28;47955;-57
2022/01/28 10:01:34;;;;;;;;;26.25;24.75;;;;;9.34;67.11;103166.56;5076434;28;45410;-55
2022/01/28 10:04:03;;;;;;;;;32.25;27.25;;;;;9.37;67.89;103161.19;5077831;27;45704;-57
2022/01/28 10:06:35;;;;;;;;;27.50;24.25;;;;;9.43;67.51;103174.44;5078192;27;45432;-57
2022/01/28 10:09:12;;;;;;;;;34.00;27.25;;;;;9.39;67.26;103167.41;5077296;27;45497;-56
2022/01/28 10:11:39;;;;;;;;;35.75;28.75;;;;;9.40;68.00;103170.94;5077444;27;45378;-56
2022/01/28 10:14:12;;;;;;;;;37.50;26.50;;;;;9.40;67.54;103166.50;5076416;28;45892;-60
2022/01/28 10:16:38;;;;;;;;;23.50;21.25;;;;;9.48;67.43;103178.81;5077677;27;45559;-57
2022/01/28 10:19:11;;;;;;;;;25.25;22.25;;;;;9.40;67.37;103170.94;5077156;28;45971;-56
2022/01/28 10:21:39;;;;;;;;;32.25;24.00;;;;;9.46;68.32;103169.09;5077021;27;45424;-58
2022/01/28 10:24:16;;;;;;;;;36.25;28.00;;;;;9.45;68.10;103169.97;5077148;27;45337;-58
2022/01/28 10:26:48;;;;;;;;;29.50;28.00;;;;;9.45;67.17;103158.47;5076098;28;45620;-57
2022/01/28 10:29:34;;;;;;;;;29.50;23.50;;;;;9.48;66.81;103173.50;5073737;27;45417;-57
2022/01/28 10:32:01;;;;;;;;;32.50;26.75;;;;;9.35;66.92;103157.69;5077406;27;45324;-56
2022/01/28 10:34:53;;;;;;;;;57.75;39.75;;;;;9.45;67.17;103175.28;5077213;28;45338;-58
2022/01/28 10:37:20;;;;;;;;;23.50;19.50;;;;;9.45;66.61;103185.91;5109290;27;45323;-56
2022/01/28 10:39:57;;;;;;;;;25.25;21.00;;;;;9.42;66.37;103179.78;5076883;27;45579;-55
2022/01/28 10:42:25;;;;;;;;;30.00;23.00;;;;;9.46;66.15;103187.69;5067942;27;45328;-57
2022/01/28 10:45:00;;;;;;;;;24.25;23.00;;;;;9.52;66.35;103191.19;5057257;28;45414;-58
2022/01/28 10:47:39;;;;;;;;;19.75;17.75;;;;;9.54;66.08;103189.41;5056918;28;45330;-56
2022/01/28 10:50:26;;;;;;;;;26.50;18.50;;;;;9.58;66.64;103196.44;5056529;28;45443;-58
2022/01/28 10:53:09;;;;;;;;;30.50;23.25;;;;;9.65;66.27;103192.81;5057085;28;45234;-56
2022/01/28 10:55:36;;;;;;;;;22.75;18.50;;;;;9.53;66.22;103182.31;5056296;28;45437;-56
2022/01/28 10:58:05;;;;;;;;;20.00;18.50;;;;;9.54;66.08;103195.59;5056652;28;45252;-57
2022/01/28 11:00:33;;;;;;;;;28.50;21.00;;;;;9.64;65.48;103188.41;5055213;28;46325;-58
2022/01/28 11:03:02;;;;;;;;;34.25;25.00;;;;;9.70;65.76;103191.84;5054944;28;45433;-60
2022/01/28 11:05:30;;;;;;;;;27.75;20.75;;;;;9.68;65.07;103191.00;5056606;28;45365;-57
2022/01/28 11:07:57;;;;;;;;;24.25;23.75;;;;;9.67;65.83;103199.88;5056794;28;45518;-58
2022/01/28 11:10:22;;;;;;;;;32.75;22.25;;;;;9.70;65.08;103201.59;5055127;28;45416;-57
2022/01/28 11:12:50;;;;;;;;;18.50;16.75;;;;;9.73;65.41;103196.25;5056251;28;45311;-56
2022/01/28 11:15:16;;;;;;;;;22.00;19.00;;;;;9.75;65.53;103195.34;5056786;28;45355;-56
2022/01/28 11:17:42;;;;;;;;;26.75;20.00;;;;;9.83;64.89;103187.28;5055182;28;45232;-57
2022/01/28 11:20:09;;;;;;;;;23.75;21.00;;;;;9.88;65.63;103180.13;5056085;28;45336;-58
2022/01/28 11:23:14;;;;;;;;;36.75;25.00;;;;;9.91;65.62;103179.25;5054804;28;45261;-57
2022/01/28 11:26:17;;;;;;;;;36.75;24.25;;;;;9.88;64.97;103179.25;5056258;28;45243;-59
2022/01/28 11:28:51;;;;;;;;;24.00;22.25;;;;;9.91;64.46;103180.13;5056177;28;45244;-56
2022/01/28 11:31:49;;;;;;;;;24.00;23.00;;;;;9.92;65.25;103181.88;5055885;28;45517;-59
2022/01/28 11:34:32;;;;;;;;;21.50;19.00;;;;;9.97;65.36;103174.72;5055882;28;45318;-56
2022/01/28 11:37:18;;;;;;;;;28.00;25.00;;;;;10.02;65.43;103178.19;5055816;28;45325;-57
2022/01/28 11:39:47;;;;;;;;;25.50;23.75;;;;;10.02;64.74;103166.66;5053973;28;45504;-57
2022/01/28 11:42:34;;;;;;;;;31.50;26.50;;;;;10.09;65.37;103167.47;5055781;28;45432;-58
2022/01/28 11:45:05;;;;;;;;;24.00;22.25;;;;;10.04;65.47;103149.81;5055719;27;45416;-57
2022/01/28 11:47:39;;;;;;;;;30.50;27.00;;;;;10.08;63.92;103140.00;5054424;28;45371;-59
2022/01/28 11:50:08;;;;;;;;;29.50;24.75;;;;;10.08;65.12;103148.00;5056603;28;45258;-58
2022/01/28 11:52:56;;;;;;;;;33.50;27.00;;;;;10.01;65.05;103148.94;5070879;28;47431;-59
2022/01/28 11:55:31;;;;;;;;;28.25;23.25;;;;;9.96;65.59;103146.38;5076314;27;45348;-60
2022/01/28 11:58:03;;;;;;;;;29.00;22.50;;;;;9.97;65.45;103148.13;5076690;27;45270;-56
2022/01/28 12:00:33;;;;;;;;;28.00;25.50;;;;;9.98;64.72;103139.25;5074700;28;45521;-57
2022/01/28 12:03:00;;;;;;;;;31.25;25.25;;;;;9.97;65.68;103132.16;5076211;27;45185;-58
2022/01/28 12:05:45;;;;;;;;;34.50;29.00;;;;;9.99;65.21;103122.41;5075111;28;45338;-54
2022/01/28 12:08:13;;;;;;;;;36.75;26.75;;;;;10.00;65.63;103120.63;5075760;28;46113;-58
2022/01/28 12:10:45;;;;;;;;;25.50;23.25;;;;;10.04;65.86;103117.91;5058119;28;45374;-57
2022/01/28 12:13:14;;;;;;;;;33.75;26.50;;;;;10.04;65.17;103112.59;5074319;27;46404;-58
2022/01/28 12:16:00;;;;;;;;;31.50;26.75;;;;;10.12;66.61;103115.13;5091688;27;45419;-56
2022/01/28 12:18:46;;;;;;;;;8.00;6.50;;;;;10.05;64.52;103119.66;5076510;27;45456;-56
2022/01/28 12:21:13;;;;;;;;;22.25;21.00;;;;;10.03;65.46;103104.66;5076682;27;45331;-57
2022/01/28 12:23:38;;;;;;;;;30.75;26.00;;;;;10.00;65.28;103100.22;5074272;28;45309;-56
2022/01/28 12:26:04;;;;;;;;;33.75;27.25;;;;;9.99;65.34;103101.13;5072612;27;45609;-56
2022/01/28 12:28:33;;;;;;;;;26.00;23.25;;;;;10.01;64.96;103094.00;5074762;27;45283;-56
2022/01/28 12:30:59;;;;;;;;;28.75;26.00;;;;;10.07;64.44;103094.84;5076311;27;45545;-57
2022/01/28 12:33:26;;;;;;;;;30.50;28.00;;;;;10.07;64.21;103079.75;5075842;27;46127;-57
2022/01/28 12:35:55;;;;;;;;;24.75;23.25;;;;;10.04;64.34;103070.06;5091628;27;45374;-58
2022/01/28 12:38:23;;;;;;;;;29.50;24.00;;;;;10.08;64.80;103088.63;5074535;28;45462;-57
2022/01/28 12:40:52;;;;;;;;;28.00;24.75;;;;;9.85;64.48;103073.84;5074834;27;45412;-55
2022/01/28 12:43:20;;;;;;;;;28.50;25.00;;;;;9.88;64.40;103079.13;5058618;28;46085;-57
2022/01/28 12:46:03;;;;;;;;;31.00;20.00;;;;;9.82;64.10;103079.22;5054178;28;45704;-56
2022/01/28 12:48:29;;;;;;;;;23.50;19.25;;;;;9.94;64.83;103097.66;5055207;28;45304;-61